createdAt,value
2023-04-09T00:01:10.375Z,96012.03
2023-04-09T00:03:37.950Z,96005.31
2023-04-09T00:06:05.503Z,96013.13
2023-04-09T00:08:32.146Z,96013.91
2023-04-09T00:10:59.783Z,96009.38
2023-04-09T00:13:38.576Z,96015.53
2023-04-09T00:16:07.507Z,96017.16
2023-04-09T00:18:34.315Z,96011.22
2023-04-09T00:21:00.982Z,96016.63
2023-04-09T00:23:27.735Z,96011.75
2023-04-09T00:25:54.334Z,96010.69
2023-04-09T00:28:20.954Z,96006.66
2023-04-09T00:30:47.534Z,96009.34
2023-04-09T00:33:14.159Z,96004.50
2023-04-09T00:35:40.869Z,96008.00
2023-04-09T00:38:07.711Z,96002.63
2023-04-09T00:40:34.312Z,96005.84
2023-04-09T00:43:00.916Z,96005.84
2023-04-09T00:45:27.730Z,96002.09
2023-04-09T00:47:54.577Z,96004.78
2023-04-09T00:50:21.650Z,96011.78
2023-04-09T00:52:48.433Z,96003.72
2023-04-09T00:55:15.335Z,96000.19
2023-04-09T00:57:41.974Z,96004.50
2023-04-09T01:00:09.272Z,96003.44
2023-04-09T01:02:36.126Z,95999.91
2023-04-09T01:05:03.473Z,95998.56
2023-04-09T01:07:38.139Z,96002.34
2023-04-09T01:10:22.493Z,96003.97
2023-04-09T01:13:09.041Z,96002.59
2023-04-09T01:15:46.873Z,96004.50
2023-04-09T01:18:20.890Z,96009.88
2023-04-09T01:21:07.150Z,96004.78
2023-04-09T01:23:55.278Z,96005.03
2023-04-09T01:26:56.475Z,96001.56
2023-04-09T01:29:30.489Z,96004.25
2023-04-09T01:31:59.448Z,96000.44
2023-04-09T01:34:28.672Z,95998.59
2023-04-09T01:36:58.091Z,95995.91
2023-04-09T01:39:26.250Z,96003.72
2023-04-09T01:41:53.783Z,96005.31
2023-04-09T01:44:21.253Z,96005.88
2023-04-09T01:46:49.581Z,96003.97
2023-04-09T01:49:18.064Z,96004.75
2023-04-09T01:51:44.932Z,96004.25
2023-04-09T01:54:11.589Z,96003.44
2023-04-09T01:56:45.869Z,96008.56
2023-04-09T01:59:13.402Z,96009.63
2023-04-09T02:02:06.844Z,96009.09
2023-04-09T02:04:37.013Z,96015.53
2023-04-09T02:07:23.455Z,96007.75
2023-04-09T02:09:53.248Z,96013.13
2023-04-09T02:12:21.679Z,96009.63
2023-04-09T02:14:51.905Z,96013.13
2023-04-09T02:17:19.590Z,96002.63
2023-04-09T02:19:47.759Z,96005.31
2023-04-09T02:22:15.180Z,95999.94
2023-04-09T02:24:41.912Z,96007.22
2023-04-09T02:27:08.889Z,95999.13
2023-04-09T02:29:35.579Z,95999.94
2023-04-09T02:32:02.317Z,96003.69
2023-04-09T02:34:29.155Z,96001.81
2023-04-09T02:36:55.862Z,96001.00
2023-04-09T02:39:22.805Z,95998.03
2023-04-09T02:41:49.434Z,96005.03
2023-04-09T02:44:16.183Z,95999.66
2023-04-09T02:46:45.064Z,95994.53
2023-04-09T02:49:11.824Z,95995.34
2023-04-09T02:51:38.589Z,95992.91
2023-04-09T02:54:05.340Z,95979.44
2023-04-09T02:56:32.094Z,95977.03
2023-04-09T02:58:58.730Z,95985.09
2023-04-09T03:01:25.411Z,95996.16
2023-04-09T03:03:52.689Z,96007.47
2023-04-09T03:06:19.379Z,96005.31
2023-04-09T03:08:45.995Z,96009.34
2023-04-09T03:11:12.676Z,96002.63
2023-04-09T03:13:39.275Z,96003.16
2023-04-09T03:16:06.345Z,95998.84
2023-04-09T03:18:33.029Z,96001.00
2023-04-09T03:20:59.738Z,96007.47
2023-04-09T03:23:28.584Z,95999.91
2023-04-09T03:26:05.853Z,96003.16
2023-04-09T03:28:40.130Z,96001.00
2023-04-09T03:31:07.332Z,95999.41
2023-04-09T03:33:37.514Z,95993.19
2023-04-09T03:36:04.512Z,95988.09
2023-04-09T03:38:51.396Z,95989.13
2023-04-09T03:41:27.445Z,95997.19
2023-04-09T03:43:56.242Z,95993.41
2023-04-09T03:46:26.696Z,96000.41
2023-04-09T03:48:54.755Z,96005.75
2023-04-09T03:51:24.335Z,96003.59
2023-04-09T03:53:55.931Z,96002.28
2023-04-09T03:56:22.828Z,96006.28
2023-04-09T03:58:49.589Z,96009.50
2023-04-09T04:01:17.321Z,96010.88
2023-04-09T04:03:53.624Z,96007.34
2023-04-09T04:06:25.527Z,96005.75
2023-04-09T04:09:09.947Z,96005.75
2023-04-09T04:11:48.834Z,96007.59
2023-04-09T04:14:17.124Z,96016.50
2023-04-09T04:16:47.469Z,96018.09
2023-04-09T04:19:18.298Z,96014.34
2023-04-09T04:21:48.008Z,96011.41
2023-04-09T04:24:15.503Z,96010.31
2023-04-09T04:26:42.162Z,96012.72
2023-04-09T04:29:11.535Z,96012.19
2023-04-09T04:31:50.617Z,96006.28
2023-04-09T04:34:20.470Z,96003.06
2023-04-09T04:36:54.121Z,95995.56
2023-04-09T04:39:21.042Z,95990.97
2023-04-09T04:41:55.566Z,95993.13
2023-04-09T04:44:25.497Z,96006.06
2023-04-09T04:46:59.114Z,96025.97
2023-04-09T04:49:26.197Z,96030.28
2023-04-09T04:51:52.807Z,96024.63
2023-04-09T04:54:19.438Z,96032.72
2023-04-09T04:56:51.160Z,96028.94
2023-04-09T04:59:39.396Z,96033.78
2023-04-09T05:02:08.914Z,96029.47
2023-04-09T05:04:46.135Z,96035.94
2023-04-09T05:07:15.918Z,96039.41
2023-04-09T05:09:49.452Z,96041.56
2023-04-09T05:12:15.989Z,96042.91
2023-04-09T05:14:42.699Z,96036.72
2023-04-09T05:17:09.329Z,96034.84
2023-04-09T05:19:44.505Z,96034.31
2023-04-09T05:22:12.445Z,96029.97
2023-04-09T05:24:39.343Z,96030.53
2023-04-09T05:27:06.255Z,96032.72
2023-04-09T05:29:33.081Z,96027.84
2023-04-09T05:32:00.234Z,96021.94
2023-04-09T05:34:34.675Z,96022.47
2023-04-09T05:37:01.358Z,96021.16
2023-04-09T05:39:28.026Z,96022.47
2023-04-09T05:41:55.588Z,96033.84
2023-04-09T05:44:22.132Z,96042.97
2023-04-09T05:46:51.084Z,96048.91
2023-04-09T05:49:22.478Z,96055.63
2023-04-09T05:51:52.484Z,96050.81
2023-04-09T05:54:25.081Z,96058.06
2023-04-09T05:56:51.824Z,96057.78
2023-04-09T05:59:18.719Z,96054.56
2023-04-09T06:01:45.349Z,96066.97
2023-04-09T06:04:12.282Z,96069.94
2023-04-09T06:06:39.404Z,96062.41
2023-04-09T06:09:06.038Z,96061.31
2023-04-09T06:11:32.696Z,96067.25
2023-04-09T06:14:00.380Z,96063.75
2023-04-09T06:16:26.991Z,96065.38
2023-04-09T06:18:53.563Z,96059.19
2023-04-09T06:21:20.535Z,96061.06
2023-04-09T06:23:47.082Z,96055.69
2023-04-09T06:26:13.680Z,96057.56
2023-04-09T06:28:40.243Z,96064.56
2023-04-09T06:31:06.926Z,96062.66
2023-04-09T06:33:33.548Z,96064.53
2023-04-09T06:36:00.244Z,96071.00
2023-04-09T06:38:26.942Z,96064.53
2023-04-09T06:40:53.510Z,96066.38
2023-04-09T06:43:20.121Z,96062.34
2023-04-09T06:45:51.327Z,96068.25
2023-04-09T06:48:18.047Z,96063.66
2023-04-09T06:50:45.183Z,96066.09
2023-04-09T06:53:12.001Z,96063.38
2023-04-09T06:55:38.585Z,96061.44
2023-04-09T06:58:05.160Z,96070.84
2023-04-09T07:00:31.773Z,96078.41
2023-04-09T07:02:58.603Z,96080.03
2023-04-09T07:05:25.383Z,96072.72
2023-04-09T07:07:51.944Z,96074.38
2023-04-09T07:10:18.585Z,96081.06
2023-04-09T07:12:45.229Z,96067.31
2023-04-09T07:15:11.891Z,96071.88
2023-04-09T07:17:38.596Z,96075.66
2023-04-09T07:20:05.833Z,96078.84
2023-04-09T07:22:32.468Z,96083.69
2023-04-09T07:24:59.099Z,96081.22
2023-04-09T07:27:27.590Z,96081.16
2023-04-09T07:29:58.183Z,96072.47
2023-04-09T07:32:25.928Z,96075.09
2023-04-09T07:34:53.335Z,96066.13
2023-04-09T07:37:20.171Z,96066.06
2023-04-09T07:39:47.539Z,96080.06
2023-04-09T07:42:14.517Z,96082.16
2023-04-09T07:44:41.171Z,96074.25
2023-04-09T07:47:08.833Z,96076.31
2023-04-09T07:49:36.967Z,96083.03
2023-04-09T07:52:04.713Z,96073.25
2023-04-09T07:54:31.636Z,96076.44
2023-04-09T07:56:58.774Z,96085.03
2023-04-09T07:59:25.425Z,96079.84
2023-04-09T08:01:52.132Z,96083.63
2023-04-09T08:04:18.967Z,96082.22
2023-04-09T08:06:45.744Z,96077.63
2023-04-09T08:09:12.365Z,96086.78
2023-04-09T08:11:38.936Z,96073.19
2023-04-09T08:14:05.513Z,96076.66
2023-04-09T08:16:32.102Z,96082.84
2023-04-09T08:18:58.682Z,96076.78
2023-04-09T08:21:25.323Z,96075.63
2023-04-09T08:23:51.969Z,96075.28
2023-04-09T08:26:18.673Z,96087.09
2023-04-09T08:28:45.244Z,96089.94
2023-04-09T08:31:11.800Z,96085.22
2023-04-09T08:33:38.453Z,96083.50
2023-04-09T08:36:09.035Z,96079.53
2023-04-09T08:38:35.681Z,96083.13
2023-04-09T08:41:02.448Z,96088.94
2023-04-09T08:43:47.227Z,96089.31
2023-04-09T08:46:17.512Z,96090.19
2023-04-09T08:48:45.857Z,96090.38
2023-04-09T08:51:20.216Z,96096.75
2023-04-09T08:53:48.242Z,96097.66
2023-04-09T08:56:14.926Z,96094.78
2023-04-09T08:58:45.332Z,96102.84
2023-04-09T09:01:27.004Z,96094.38
2023-04-09T09:03:54.895Z,96088.06
2023-04-09T09:06:22.750Z,96089.50
2023-04-09T09:09:06.672Z,96094.22
2023-04-09T09:11:35.572Z,96088.63
2023-04-09T09:14:04.713Z,96086.19
2023-04-09T09:16:31.811Z,96097.25
2023-04-09T09:18:59.439Z,96093.56
2023-04-09T09:21:27.508Z,96087.47
2023-04-09T09:23:54.728Z,96087.13
2023-04-09T09:26:23.792Z,96089.50
2023-04-09T09:28:51.599Z,96088.59
2023-04-09T09:31:20.396Z,96083.38
2023-04-09T09:33:48.208Z,96078.91
2023-04-09T09:36:15.680Z,96076.06
2023-04-09T09:38:53.756Z,96078.88
2023-04-09T09:41:21.363Z,96079.06
2023-04-09T09:43:48.160Z,96083.88
2023-04-09T09:46:16.381Z,96084.75
2023-04-09T09:48:43.178Z,96093.03
2023-04-09T09:51:11.602Z,96090.06
2023-04-09T09:53:42.352Z,96079.75
2023-04-09T09:56:15.802Z,96081.38
2023-04-09T09:58:48.927Z,96089.84
2023-04-09T10:01:17.709Z,96084.78
2023-04-09T10:03:45.877Z,96084.78
2023-04-09T10:06:13.314Z,96075.63
2023-04-09T10:08:42.124Z,96083.91
2023-04-09T10:11:08.958Z,96078.03
2023-04-09T10:13:39.499Z,96071.97
2023-04-09T10:16:07.380Z,96083.19
2023-04-09T10:18:34.737Z,96079.25
2023-04-09T10:21:17.505Z,96081.72
2023-04-09T10:23:48.301Z,96079.22
2023-04-09T10:26:14.988Z,96071.09
2023-04-09T10:28:43.156Z,96064.41
2023-04-09T10:31:09.935Z,96072.75
2023-04-09T10:33:38.177Z,96075.78
2023-04-09T10:36:11.628Z,96079.19
2023-04-09T10:38:46.392Z,96082.06
2023-04-09T10:41:22.330Z,96080.13
2023-04-09T10:43:49.155Z,96080.19
2023-04-09T10:46:31.644Z,96079.69
2023-04-09T10:49:21.720Z,96080.28
2023-04-09T10:51:52.208Z,96079.59
2023-04-09T10:54:33.948Z,96082.94
2023-04-09T10:57:22.328Z,96085.72
2023-04-09T10:59:54.315Z,96092.06
2023-04-09T11:02:26.697Z,96082.03
2023-04-09T11:05:17.689Z,96076.25
2023-04-09T11:07:47.479Z,96078.47
2023-04-09T11:10:14.153Z,96077.78
2023-04-09T11:12:40.802Z,96083.28
2023-04-09T11:15:16.315Z,96072.91
2023-04-09T11:17:43.420Z,96072.22
2023-04-09T11:20:11.084Z,96074.88
2023-04-09T11:22:38.651Z,96075.44
2023-04-09T11:25:05.802Z,96067.69
2023-04-09T11:27:37.535Z,96074.56
2023-04-09T11:30:04.730Z,96073.41
2023-04-09T11:32:31.642Z,96070.16
2023-04-09T11:34:58.203Z,96065.84
2023-04-09T11:37:24.838Z,96060.91
2023-04-09T11:39:51.712Z,96065.59
2023-04-09T11:42:18.320Z,96072.72
2023-04-09T11:44:45.485Z,96071.16
2023-04-09T11:47:13.701Z,96075.69
2023-04-09T11:49:40.739Z,96072.78
2023-04-09T11:52:07.454Z,96080.06
2023-04-09T11:54:34.733Z,96074.47
2023-04-09T11:57:03.922Z,96076.72
2023-04-09T11:59:31.057Z,96077.22
2023-04-09T12:01:58.576Z,96082.84
2023-04-09T12:04:25.434Z,96078.19
2023-04-09T12:06:57.060Z,96083.03
2023-04-09T12:09:23.628Z,96079.84
2023-04-09T12:11:50.356Z,96069.03
2023-04-09T12:14:18.423Z,96075.13
2023-04-09T12:16:45.207Z,96074.19
2023-04-09T12:19:13.340Z,96077.41
2023-04-09T12:21:49.042Z,96072.91
2023-04-09T12:24:19.597Z,96076.47
2023-04-09T12:26:47.191Z,96077.78
2023-04-09T12:29:19.492Z,96077.47
2023-04-09T12:31:47.162Z,96076.69
2023-04-09T12:34:14.076Z,96084.72
2023-04-09T12:36:41.350Z,96077.88
2023-04-09T12:39:09.594Z,96074.34
2023-04-09T12:41:36.188Z,96077.72
2023-04-09T12:44:02.862Z,96071.81
2023-04-09T12:46:29.611Z,96072.44
2023-04-09T12:48:56.209Z,96076.94
2023-04-09T12:51:22.824Z,96072.28
2023-04-09T12:53:49.495Z,96069.06
2023-04-09T12:56:16.169Z,96069.72
2023-04-09T12:58:42.830Z,96071.31
2023-04-09T13:01:09.540Z,96066.81
2023-04-09T13:03:36.450Z,96070.97
2023-04-09T13:06:03.401Z,96069.97
2023-04-09T13:08:29.970Z,96075.53
2023-04-09T13:10:56.656Z,96073.28
2023-04-09T13:13:23.317Z,96073.72
2023-04-09T13:15:50.038Z,96075.72
2023-04-09T13:18:16.660Z,96070.72
2023-04-09T13:20:43.341Z,96066.66
2023-04-09T13:23:09.959Z,96061.81
2023-04-09T13:25:36.636Z,96071.25
2023-04-09T13:28:03.249Z,96064.53
2023-04-09T13:30:30.020Z,96058.75
2023-04-09T13:32:56.746Z,96060.34
2023-04-09T13:35:23.656Z,96052.19
2023-04-09T13:37:50.471Z,96053.50
2023-04-09T13:40:17.159Z,96059.28
2023-04-09T13:42:43.800Z,96041.59
2023-04-09T13:45:10.463Z,96047.88
2023-04-09T13:47:37.132Z,96041.34
2023-04-09T13:50:04.267Z,96050.69
2023-04-09T13:52:32.137Z,96042.91
2023-04-09T13:54:58.759Z,96049.19
2023-04-09T13:57:25.306Z,96040.69
2023-04-09T13:59:51.939Z,96047.56
2023-04-09T14:02:18.700Z,96046.41
2023-04-09T14:04:45.875Z,96040.66
2023-04-09T14:07:12.500Z,96047.88
2023-04-09T14:09:39.122Z,96043.84
2023-04-09T14:12:05.767Z,96035.34
2023-04-09T14:14:32.334Z,96038.88
2023-04-09T14:16:58.978Z,96046.53
2023-04-09T14:19:25.565Z,96040.91
2023-04-09T14:21:52.523Z,96033.50
2023-04-09T14:24:19.082Z,96041.97
2023-04-09T14:26:45.675Z,96039.53
2023-04-09T14:29:12.276Z,96034.06
2023-04-09T14:31:39.269Z,96040.72
2023-04-09T14:34:05.981Z,96038.94
2023-04-09T14:36:32.552Z,96040.53
2023-04-09T14:38:59.362Z,96043.75
2023-04-09T14:41:26.330Z,96035.09
2023-04-09T14:43:52.904Z,96037.50
2023-04-09T14:46:19.531Z,96034.22
2023-04-09T14:48:46.215Z,96031.09
2023-04-09T14:51:12.940Z,96030.16
2023-04-09T14:53:39.531Z,96019.31
2023-04-09T14:56:06.607Z,96015.81
2023-04-09T14:58:33.203Z,96018.22
2023-04-09T15:00:59.847Z,96021.41
2023-04-09T15:03:26.614Z,96029.78
2023-04-09T15:05:53.444Z,96028.81
2023-04-09T15:08:20.056Z,96022.88
2023-04-09T15:10:46.619Z,96024.16
2023-04-09T15:13:13.169Z,96022.88
2023-04-09T15:15:43.042Z,96021.59
2023-04-09T15:18:09.781Z,96019.00
2023-04-09T15:20:37.776Z,96016.44
2023-04-09T15:23:04.505Z,96010.81
2023-04-09T15:25:31.359Z,96019.78
2023-04-09T15:27:58.239Z,96012.28
2023-04-09T15:30:25.034Z,96009.88
2023-04-09T15:32:51.722Z,96006.66
2023-04-09T15:35:18.545Z,96006.97
2023-04-09T15:37:51.255Z,96002.56
2023-04-09T15:40:18.973Z,95994.16
2023-04-09T15:42:45.551Z,96001.13
2023-04-09T15:45:21.806Z,96002.09
2023-04-09T15:47:48.407Z,96001.00
2023-04-09T15:50:15.067Z,95991.22
2023-04-09T15:52:41.918Z,95994.78
2023-04-09T15:55:09.265Z,96000.94
2023-04-09T15:57:36.095Z,96000.59
2023-04-09T16:00:02.809Z,95999.38
2023-04-09T16:02:31.397Z,95989.97
2023-04-09T16:04:58.184Z,95990.78
2023-04-09T16:07:24.789Z,95992.88
2023-04-09T16:09:51.437Z,95990.75
2023-04-09T16:12:18.206Z,95988.00
2023-04-09T16:14:44.813Z,95993.56
2023-04-09T16:17:11.597Z,95996.38
2023-04-09T16:19:38.582Z,96001.22
2023-04-09T16:22:05.174Z,96001.38
2023-04-09T16:24:31.734Z,96010.50
2023-04-09T16:26:58.391Z,96005.66
2023-04-09T16:29:24.983Z,96014.31
2023-04-09T16:31:51.586Z,96006.94
2023-04-09T16:34:18.251Z,96006.63
2023-04-09T16:36:45.017Z,96014.84
2023-04-09T16:39:11.832Z,96009.53
2023-04-09T16:41:38.570Z,96015.81
2023-04-09T16:44:05.374Z,96009.97
2023-04-09T16:46:32.111Z,96005.03
2023-04-09T16:48:58.761Z,96005.97
2023-04-09T16:51:25.456Z,95998.34
2023-04-09T16:53:52.072Z,96001.81
2023-04-09T16:56:18.873Z,95996.06
2023-04-09T16:58:45.831Z,95999.44
2023-04-09T17:01:12.503Z,95997.22
2023-04-09T17:03:39.411Z,96002.53
2023-04-09T17:06:06.367Z,96001.50
2023-04-09T17:08:33.022Z,96012.56
2023-04-09T17:10:59.647Z,96010.63
2023-04-09T17:13:26.219Z,96011.75
2023-04-09T17:15:52.787Z,96010.50
2023-04-09T17:18:19.337Z,96012.31
2023-04-09T17:20:45.911Z,96008.19
2023-04-09T17:23:12.575Z,96004.06
2023-04-09T17:25:39.167Z,95998.66
2023-04-09T17:28:05.784Z,96010.22
2023-04-09T17:30:32.928Z,96010.50
2023-04-09T17:32:59.910Z,96011.44
2023-04-09T17:35:26.671Z,96015.75
2023-04-09T17:37:53.359Z,96016.06
2023-04-09T17:40:19.988Z,96009.44
2023-04-09T17:42:46.547Z,96008.63
2023-04-09T17:45:13.207Z,96016.13
2023-04-09T17:47:39.852Z,96023.69
2023-04-09T17:50:07.671Z,96037.31
2023-04-09T17:52:34.641Z,96031.50
2023-04-09T17:55:01.213Z,96038.13
2023-04-09T17:57:27.813Z,96036.22
2023-04-09T17:59:54.358Z,96045.69
2023-04-09T18:02:21.151Z,96049.66
2023-04-09T18:04:48.236Z,96051.88
2023-04-09T18:07:14.963Z,96046.22
2023-04-09T18:09:41.532Z,96047.78
2023-04-09T18:12:08.167Z,96041.94
2023-04-09T18:14:34.732Z,96051.59
2023-04-09T18:17:01.430Z,96041.66
2023-04-09T18:19:28.054Z,96049.59
2023-04-09T18:21:54.685Z,96056.38
2023-04-09T18:24:21.294Z,96063.97
2023-04-09T18:26:47.871Z,96071.56
2023-04-09T18:29:14.693Z,96068.28
2023-04-09T18:31:41.333Z,96076.97
2023-04-09T18:34:08.011Z,96076.03
2023-04-09T18:36:34.727Z,96070.84
2023-04-09T18:39:01.496Z,96073.97
2023-04-09T18:41:28.129Z,96080.91
2023-04-09T18:43:55.071Z,96088.34
2023-04-09T18:46:21.746Z,96088.75
2023-04-09T18:48:48.484Z,96087.78
2023-04-09T18:51:15.088Z,96095.72
2023-04-09T18:53:42.111Z,96088.53
2023-04-09T18:56:09.124Z,96099.16
2023-04-09T18:58:36.312Z,96101.41
2023-04-09T19:01:12.433Z,96102.00
2023-04-09T19:03:40.315Z,96108.56
2023-04-09T19:06:14.156Z,96100.31
2023-04-09T19:08:41.187Z,96104.09
2023-04-09T19:11:08.048Z,96110.91
2023-04-09T19:13:35.417Z,96115.56
2023-04-09T19:16:02.321Z,96108.06
2023-04-09T19:18:29.514Z,96115.38
2023-04-09T19:20:56.118Z,96113.00
2023-04-09T19:23:22.714Z,96111.44
2023-04-09T19:25:53.528Z,96108.19
2023-04-09T19:28:20.116Z,96110.41
2023-04-09T19:30:46.861Z,96116.66
2023-04-09T19:33:13.527Z,96110.44
2023-04-09T19:35:40.172Z,96122.41
2023-04-09T19:38:07.685Z,96116.72
2023-04-09T19:40:34.307Z,96114.84
2023-04-09T19:43:00.989Z,96114.88
2023-04-09T19:45:28.158Z,96107.63
2023-04-09T19:47:55.933Z,96117.91
2023-04-09T19:50:23.008Z,96121.94
2023-04-09T19:52:49.724Z,96120.63
2023-04-09T19:55:16.298Z,96122.78
2023-04-09T19:57:42.962Z,96120.34
2023-04-09T20:00:10.078Z,96125.22
2023-04-09T20:02:40.320Z,96124.72
2023-04-09T20:05:08.517Z,96129.84
2023-04-09T20:07:35.017Z,96118.81
2023-04-09T20:10:04.551Z,96113.13
2023-04-09T20:12:31.198Z,96117.19
2023-04-09T20:14:58.209Z,96114.22
2023-04-09T20:17:25.181Z,96113.97
2023-04-09T20:19:51.868Z,96115.88
2023-04-09T20:22:18.494Z,96119.41
2023-04-09T20:24:45.184Z,96122.13
2023-04-09T20:27:11.728Z,96117.81
2023-04-09T20:29:38.438Z,96122.16
2023-04-09T20:32:05.376Z,96122.69
2023-04-09T20:34:32.056Z,96127.00
2023-04-09T20:36:58.880Z,96119.75
2023-04-09T20:39:25.462Z,96114.09
2023-04-09T20:41:52.508Z,96123.78
2023-04-09T20:44:19.398Z,96116.81
2023-04-09T20:46:46.057Z,96120.56
2023-04-09T20:49:12.791Z,96119.78
2023-04-09T20:51:39.475Z,96128.66
2023-04-09T20:54:06.226Z,96127.06
2023-04-09T20:56:32.902Z,96129.75
2023-04-09T20:58:59.480Z,96127.88
2023-04-09T21:01:26.212Z,96125.16
2023-04-09T21:03:54.070Z,96132.19
2023-04-09T21:06:20.914Z,96120.31
2023-04-09T21:08:47.716Z,96115.69
2023-04-09T21:11:14.320Z,96109.25
2023-04-09T21:13:53.809Z,96098.47
2023-04-09T21:16:21.885Z,96108.16
2023-04-09T21:18:48.606Z,96111.13
2023-04-09T21:21:15.213Z,96105.50
2023-04-09T21:23:41.819Z,96107.09
2023-04-09T21:26:08.429Z,96114.09
2023-04-09T21:28:35.002Z,96110.63
2023-04-09T21:31:01.681Z,96119.53
2023-04-09T21:33:30.034Z,96111.72
2023-04-09T21:35:57.234Z,96117.91
2023-04-09T21:38:24.066Z,96117.66
2023-04-09T21:40:50.865Z,96114.13
2023-04-09T21:43:17.446Z,96115.75
2023-04-09T21:45:44.263Z,96119.53
2023-04-09T21:48:12.076Z,96130.28
2023-04-09T21:50:38.806Z,96124.38
2023-04-09T21:53:05.431Z,96132.47
2023-04-09T21:55:32.064Z,96130.56
2023-04-09T21:57:58.645Z,96137.28
2023-04-09T22:00:25.258Z,96130.00
2023-04-09T22:02:52.185Z,96133.75
2023-04-09T22:05:19.374Z,96142.63
2023-04-09T22:07:48.353Z,96142.63
2023-04-09T22:10:15.175Z,96144.78
2023-04-09T22:12:42.204Z,96148.00
2023-04-09T22:15:09.507Z,96151.22
2023-04-09T22:17:36.195Z,96145.53
2023-04-09T22:20:02.937Z,96147.13
2023-04-09T22:22:31.325Z,96153.81
2023-04-09T22:24:58.116Z,96153.28
2023-04-09T22:27:24.952Z,96156.50
2023-04-09T22:29:51.841Z,96158.66
2023-04-09T22:32:18.523Z,96148.69
2023-04-09T22:34:45.537Z,96150.81
2023-04-09T22:37:12.540Z,96146.22
2023-04-09T22:39:39.395Z,96147.56
2023-04-09T22:42:06.517Z,96148.34
2023-04-09T22:44:33.097Z,96153.44
2023-04-09T22:46:59.945Z,96146.69
2023-04-09T22:49:26.909Z,96141.84
2023-04-09T22:51:53.561Z,96151.25
2023-04-09T22:54:20.522Z,96139.94
2023-04-09T22:56:47.296Z,96142.88
2023-04-09T22:59:14.198Z,96141.28
2023-04-09T23:01:40.946Z,96140.16
2023-04-09T23:04:07.711Z,96138.53
2023-04-09T23:06:34.350Z,96139.09
2023-04-09T23:09:01.087Z,96134.22
2023-04-09T23:11:31.031Z,96128.03
2023-04-09T23:13:57.826Z,96133.66
2023-04-09T23:16:24.769Z,96134.75
2023-04-09T23:18:51.752Z,96136.88
2023-04-09T23:21:18.731Z,96136.31
2023-04-09T23:23:45.697Z,96125.84
2023-04-09T23:26:12.588Z,96121.78
2023-04-09T23:28:39.575Z,96123.94
2023-04-09T23:31:06.394Z,96125.28
2023-04-09T23:33:33.083Z,96122.84
2023-04-09T23:35:59.727Z,96119.59
2023-04-09T23:38:26.534Z,96118.78
2023-04-09T23:40:53.224Z,96112.03
2023-04-09T23:43:19.828Z,96110.44
2023-04-09T23:45:46.550Z,96098.31
2023-04-09T23:48:13.150Z,96091.56
2023-04-09T23:50:40.949Z,96091.84
2023-04-09T23:53:08.112Z,96096.91
2023-04-09T23:55:35.286Z,96094.75
2023-04-09T23:58:02.020Z,96091.53
